createdAt,value
2022-11-10T00:03:13.414Z,100.00
2022-11-10T00:07:20.180Z,100.00
2022-11-10T00:11:06.390Z,100.00
2022-11-10T00:15:08.086Z,100.00
2022-11-10T00:18:51.288Z,100.00
2022-11-10T00:22:40.827Z,100.00
2022-11-10T00:26:23.656Z,100.00
2022-11-10T00:30:08.741Z,100.00
2022-11-10T00:33:51.411Z,100.00
2022-11-10T00:37:34.222Z,100.00
2022-11-10T00:41:19.379Z,100.00
2022-11-10T00:45:02.658Z,100.00
2022-11-10T00:48:47.183Z,100.00
2022-11-10T00:52:30.143Z,100.00
2022-11-10T00:56:14.040Z,100.00
2022-11-10T00:59:57.043Z,100.00
2022-11-10T01:03:40.290Z,100.00
2022-11-10T01:07:48.578Z,100.00
2022-11-10T01:11:31.864Z,100.00
2022-11-10T01:15:14.536Z,100.00
2022-11-10T01:18:58.660Z,100.00
2022-11-10T01:22:58.145Z,100.00
2022-11-10T01:26:40.781Z,100.00
2022-11-10T01:30:23.441Z,100.00
2022-11-10T01:34:06.380Z,100.00
2022-11-10T01:38:08.311Z,100.00
2022-11-10T01:41:51.082Z,100.00
2022-11-10T01:45:49.012Z,100.00
2022-11-10T01:49:33.698Z,100.00
2022-11-10T01:53:22.852Z,100.00
2022-11-10T01:57:08.260Z,100.00
2022-11-10T02:00:51.005Z,100.00
2022-11-10T02:04:34.295Z,100.00
2022-11-10T02:08:23.200Z,100.00
2022-11-10T02:12:06.894Z,100.00
2022-11-10T02:15:49.594Z,100.00
2022-11-10T02:19:41.116Z,100.00
2022-11-10T02:23:49.912Z,100.00
2022-11-10T02:27:32.788Z,100.00
2022-11-10T02:31:15.958Z,100.00
2022-11-10T02:34:58.799Z,100.00
2022-11-10T02:38:52.509Z,100.00
2022-11-10T02:42:35.243Z,100.00
2022-11-10T02:46:17.892Z,100.00
2022-11-10T02:50:00.557Z,100.00
2022-11-10T02:53:53.362Z,100.00
2022-11-10T02:57:36.038Z,100.00
2022-11-10T03:01:18.744Z,100.00
2022-11-10T03:05:01.563Z,97.88
2022-11-10T03:08:44.315Z,97.46
2022-11-10T03:12:28.485Z,98.92
2022-11-10T03:16:11.114Z,100.00
2022-11-10T03:19:53.795Z,100.00
2022-11-10T03:23:39.609Z,100.00
2022-11-10T03:27:22.413Z,100.00
2022-11-10T03:31:06.908Z,100.00
2022-11-10T03:34:49.562Z,100.00
2022-11-10T03:38:32.293Z,100.00
2022-11-10T03:42:14.970Z,100.00
2022-11-10T03:45:57.622Z,100.00
2022-11-10T03:49:41.651Z,100.00
2022-11-10T03:53:24.593Z,100.00
2022-11-10T03:57:07.481Z,100.00
2022-11-10T04:00:50.160Z,100.00
2022-11-10T04:04:50.207Z,100.00
2022-11-10T04:08:51.998Z,100.00
2022-11-10T04:12:52.409Z,100.00
2022-11-10T04:16:35.165Z,100.00
2022-11-10T04:20:18.030Z,100.00
2022-11-10T04:24:02.006Z,100.00
2022-11-10T04:27:47.598Z,100.00
2022-11-10T04:31:31.622Z,100.00
2022-11-10T04:35:14.255Z,100.00
2022-11-10T04:38:57.224Z,100.00
2022-11-10T04:42:42.026Z,100.00
2022-11-10T04:46:26.578Z,100.00
2022-11-10T04:50:09.916Z,100.00
2022-11-10T04:53:52.744Z,100.00
2022-11-10T04:57:35.507Z,100.00
2022-11-10T05:01:21.421Z,100.00
2022-11-10T05:05:04.170Z,100.00
2022-11-10T05:08:47.375Z,100.00
2022-11-10T05:12:30.075Z,100.00
2022-11-10T05:16:13.181Z,100.00
2022-11-10T05:19:57.199Z,100.00
2022-11-10T05:23:40.255Z,100.00
2022-11-10T05:27:23.210Z,100.00
2022-11-10T05:31:06.188Z,100.00
2022-11-10T05:34:48.892Z,100.00
2022-11-10T05:38:32.980Z,100.00
2022-11-10T05:42:15.667Z,100.00
2022-11-10T05:45:58.516Z,100.00
2022-11-10T05:49:41.202Z,100.00
2022-11-10T05:53:24.212Z,100.00
2022-11-10T05:57:08.513Z,100.00
2022-11-10T06:00:51.195Z,100.00
2022-11-10T06:04:33.825Z,100.00
2022-11-10T06:08:17.759Z,100.00
2022-11-10T06:12:00.390Z,100.00
2022-11-10T06:15:50.055Z,100.00
2022-11-10T06:19:33.109Z,100.00
2022-11-10T06:23:16.209Z,100.00
2022-11-10T06:26:58.888Z,100.00
2022-11-10T06:30:41.583Z,100.00
2022-11-10T06:34:25.581Z,100.00
2022-11-10T06:38:10.946Z,100.00
2022-11-10T06:41:53.599Z,100.00
2022-11-10T06:45:36.279Z,100.00
2022-11-10T06:49:20.176Z,100.00
2022-11-10T06:53:04.485Z,100.00
2022-11-10T06:56:47.127Z,100.00
2022-11-10T07:00:30.525Z,100.00
2022-11-10T07:04:20.534Z,100.00
2022-11-10T07:08:06.063Z,100.00
2022-11-10T07:11:48.816Z,100.00
2022-11-10T07:15:34.684Z,100.00
2022-11-10T07:19:17.422Z,100.00
2022-11-10T07:23:01.124Z,100.00
2022-11-10T07:26:45.658Z,100.00
2022-11-10T07:30:29.130Z,100.00
2022-11-10T07:34:11.861Z,100.00
2022-11-10T07:37:54.615Z,100.00
2022-11-10T07:41:37.346Z,100.00
2022-11-10T07:45:22.939Z,100.00
2022-11-10T07:49:05.743Z,100.00
2022-11-10T07:52:48.744Z,100.00
2022-11-10T07:56:31.386Z,100.00
2022-11-10T08:00:15.580Z,100.00
2022-11-10T08:03:59.551Z,100.00
2022-11-10T08:07:42.318Z,100.00
2022-11-10T08:11:25.075Z,100.00
2022-11-10T08:15:08.484Z,99.81
2022-11-10T08:18:51.179Z,100.00
2022-11-10T08:22:35.355Z,100.00
2022-11-10T08:26:18.046Z,100.00
2022-11-10T08:30:00.707Z,100.00
2022-11-10T08:33:43.354Z,98.44
2022-11-10T08:37:27.808Z,96.86
2022-11-10T08:41:14.202Z,97.50
2022-11-10T08:44:56.831Z,94.94
2022-11-10T08:48:39.511Z,92.83
2022-11-10T08:52:22.177Z,92.82
2022-11-10T08:56:05.027Z,94.76
2022-11-10T08:59:49.049Z,92.39
2022-11-10T09:03:34.635Z,90.18
2022-11-10T09:07:17.321Z,85.55
2022-11-10T09:11:03.128Z,80.64
2022-11-10T09:14:45.853Z,80.08
2022-11-10T09:18:30.121Z,81.37
2022-11-10T09:22:12.891Z,83.13
2022-11-10T09:25:56.842Z,84.46
2022-11-10T09:29:39.534Z,84.90
2022-11-10T09:33:22.636Z,85.98
2022-11-10T09:37:06.835Z,85.79
2022-11-10T09:40:57.056Z,86.19
2022-11-10T09:44:42.951Z,83.40
2022-11-10T09:48:28.692Z,81.89
2022-11-10T09:52:13.819Z,75.98
2022-11-10T09:55:59.757Z,75.56
2022-11-10T09:59:44.068Z,76.38
2022-11-10T10:03:31.531Z,76.41
2022-11-10T10:07:17.953Z,74.18
2022-11-10T10:11:08.322Z,74.59
2022-11-10T10:15:11.808Z,73.79
2022-11-10T10:19:00.410Z,72.73
2022-11-10T10:22:54.822Z,69.27
2022-11-10T10:26:41.084Z,67.33
2022-11-10T10:30:24.007Z,68.32
2022-11-10T10:34:12.652Z,67.99
2022-11-10T10:37:58.489Z,68.33
2022-11-10T10:41:43.392Z,69.68
2022-11-10T10:45:29.024Z,70.63
2022-11-10T10:49:33.734Z,71.71
2022-11-10T10:53:19.208Z,71.65
2022-11-10T10:57:05.613Z,70.70
2022-11-10T11:00:49.790Z,68.82
2022-11-10T11:04:35.391Z,66.56
2022-11-10T11:08:20.013Z,66.55
2022-11-10T11:12:06.035Z,66.63
2022-11-10T11:15:58.177Z,65.69
2022-11-10T11:19:41.330Z,63.90
2022-11-10T11:23:37.325Z,63.48
2022-11-10T11:27:24.912Z,63.06
2022-11-10T11:31:11.667Z,63.58
2022-11-10T11:35:01.612Z,64.52
2022-11-10T11:38:54.076Z,65.82
2022-11-10T11:42:48.074Z,66.23
2022-11-10T11:46:37.599Z,67.28
2022-11-10T11:50:28.781Z,66.82
2022-11-10T11:54:28.123Z,65.44
2022-11-10T11:58:26.409Z,64.32
2022-11-10T12:02:47.560Z,62.75
2022-11-10T12:06:42.066Z,62.18
2022-11-10T12:10:39.239Z,60.88
2022-11-10T12:14:30.101Z,59.94
2022-11-10T12:18:22.611Z,58.06
2022-11-10T12:22:11.419Z,55.73
2022-11-10T12:26:02.739Z,56.51
2022-11-10T12:29:48.993Z,53.61
2022-11-10T12:33:36.623Z,53.79
2022-11-10T12:37:27.685Z,53.71
2022-11-10T12:41:13.734Z,53.50
2022-11-10T12:45:01.700Z,54.18
2022-11-10T12:48:51.614Z,54.85
2022-11-10T12:52:38.444Z,53.66
2022-11-10T12:56:26.607Z,54.99
2022-11-10T13:00:28.113Z,54.03
2022-11-10T13:04:14.974Z,51.39
2022-11-10T13:08:13.880Z,52.18
2022-11-10T13:12:16.629Z,52.88
2022-11-10T13:15:59.735Z,54.04
2022-11-10T13:19:52.900Z,55.07
2022-11-10T13:24:19.214Z,56.77
2022-11-10T13:28:03.366Z,57.63
2022-11-10T13:31:56.679Z,57.44
2022-11-10T13:35:55.166Z,57.28
2022-11-10T13:39:38.449Z,53.53
2022-11-10T13:43:26.507Z,52.71
2022-11-10T13:47:45.893Z,51.19
2022-11-10T13:51:40.421Z,50.63
2022-11-10T13:55:35.873Z,51.37
2022-11-10T13:59:22.527Z,51.85
2022-11-10T14:03:06.538Z,50.75
2022-11-10T14:06:50.668Z,50.10
2022-11-10T14:10:40.863Z,49.61
2022-11-10T14:14:28.570Z,50.10
2022-11-10T14:18:19.283Z,50.19
2022-11-10T14:22:04.657Z,49.95
2022-11-10T14:25:48.011Z,50.11
2022-11-10T14:29:34.528Z,49.47
2022-11-10T14:33:17.254Z,49.79
2022-11-10T14:37:02.710Z,49.45
2022-11-10T14:40:45.427Z,49.67
2022-11-10T14:44:29.623Z,50.88
2022-11-10T14:48:19.226Z,49.65
2022-11-10T14:52:02.119Z,48.56
2022-11-10T14:55:46.310Z,47.80
2022-11-10T14:59:31.734Z,47.71
2022-11-10T15:03:20.044Z,47.83
2022-11-10T15:07:02.922Z,48.42
2022-11-10T15:10:47.622Z,49.06
2022-11-10T15:14:33.010Z,49.56
2022-11-10T15:18:29.160Z,49.88
2022-11-10T15:22:17.983Z,50.16
2022-11-10T15:26:00.656Z,51.36
2022-11-10T15:29:43.345Z,53.15
2022-11-10T15:33:29.191Z,54.19
2022-11-10T15:37:30.757Z,53.63
2022-11-10T15:41:16.291Z,54.81
2022-11-10T15:44:59.437Z,56.07
2022-11-10T15:48:44.844Z,56.75
2022-11-10T15:52:27.554Z,56.70
2022-11-10T15:56:14.370Z,57.07
2022-11-10T15:59:57.016Z,57.68
2022-11-10T16:03:44.493Z,58.55
2022-11-10T16:07:27.293Z,58.08
2022-11-10T16:11:15.442Z,59.63
2022-11-10T16:14:58.265Z,59.88
2022-11-10T16:18:44.081Z,60.38
2022-11-10T16:22:26.830Z,60.10
2022-11-10T16:26:11.777Z,60.93
2022-11-10T16:29:54.902Z,61.53
2022-11-10T16:33:37.568Z,62.33
2022-11-10T16:37:21.807Z,62.87
2022-11-10T16:41:05.263Z,63.50
2022-11-10T16:44:48.016Z,63.98
2022-11-10T16:48:32.831Z,64.68
2022-11-10T16:52:16.665Z,64.96
2022-11-10T16:56:00.806Z,65.43
2022-11-10T16:59:45.569Z,64.98
2022-11-10T17:03:31.924Z,65.11
2022-11-10T17:07:15.534Z,65.15
2022-11-10T17:10:58.411Z,66.51
2022-11-10T17:14:42.526Z,66.29
2022-11-10T17:18:25.726Z,66.65
2022-11-10T17:22:10.822Z,66.42
2022-11-10T17:25:54.548Z,66.94
2022-11-10T17:29:37.243Z,67.22
2022-11-10T17:33:21.616Z,67.28
2022-11-10T17:37:04.891Z,67.20
2022-11-10T17:40:48.306Z,67.38
2022-11-10T17:44:31.425Z,66.87
2022-11-10T17:48:14.118Z,66.79
2022-11-10T17:51:58.248Z,67.64
2022-11-10T17:55:41.010Z,67.85
2022-11-10T17:59:23.779Z,67.98
2022-11-10T18:03:08.592Z,68.30
2022-11-10T18:06:51.336Z,69.17
2022-11-10T18:10:35.370Z,69.62
2022-11-10T18:14:18.036Z,70.13
2022-11-10T18:18:01.269Z,70.27
2022-11-10T18:21:44.098Z,70.08
2022-11-10T18:25:26.815Z,70.36
2022-11-10T18:29:11.055Z,70.71
2022-11-10T18:32:53.728Z,70.85
2022-11-10T18:36:36.366Z,70.88
2022-11-10T18:40:19.082Z,71.00
2022-11-10T18:44:01.798Z,71.09
2022-11-10T18:47:45.845Z,71.54
2022-11-10T18:51:28.587Z,71.52
2022-11-10T18:55:11.640Z,71.53
2022-11-10T18:58:56.972Z,71.92
2022-11-10T19:02:39.908Z,72.11
2022-11-10T19:06:24.447Z,72.48
2022-11-10T19:10:09.016Z,73.27
2022-11-10T19:13:54.740Z,73.43
2022-11-10T19:17:39.195Z,73.69
2022-11-10T19:21:27.014Z,73.97
2022-11-10T19:25:09.958Z,73.87
2022-11-10T19:28:56.430Z,73.76
2022-11-10T19:32:39.803Z,74.18
2022-11-10T19:36:26.733Z,74.33
2022-11-10T19:40:10.716Z,74.36
2022-11-10T19:43:56.713Z,74.85
2022-11-10T19:47:39.354Z,74.90
2022-11-10T19:51:23.183Z,74.91
2022-11-10T19:55:07.862Z,74.73
2022-11-10T19:58:58.743Z,74.92
2022-11-10T20:02:45.403Z,74.90
2022-11-10T20:06:28.984Z,75.11
2022-11-10T20:10:13.262Z,75.71
2022-11-10T20:14:16.774Z,75.99
2022-11-10T20:17:59.411Z,76.17
2022-11-10T20:21:42.339Z,76.19
2022-11-10T20:25:26.371Z,76.74
2022-11-10T20:29:21.226Z,76.20
2022-11-10T20:33:05.797Z,76.05
2022-11-10T20:36:48.611Z,76.13
2022-11-10T20:40:48.383Z,76.27
2022-11-10T20:44:31.065Z,76.73
2022-11-10T20:48:13.909Z,77.44
2022-11-10T20:51:59.672Z,79.80
2022-11-10T20:55:53.451Z,78.81
2022-11-10T20:59:36.688Z,78.00
2022-11-10T21:03:19.507Z,78.16
2022-11-10T21:07:02.280Z,77.81
2022-11-10T21:10:52.748Z,78.39
2022-11-10T21:14:45.275Z,78.07
2022-11-10T21:18:29.771Z,78.12
2022-11-10T21:22:12.483Z,78.29
2022-11-10T21:25:57.737Z,78.74
2022-11-10T21:30:05.523Z,78.74
2022-11-10T21:33:50.509Z,78.04
2022-11-10T21:37:34.606Z,78.00
2022-11-10T21:41:19.062Z,77.51
2022-11-10T21:45:01.762Z,78.33
2022-11-10T21:48:44.571Z,78.64
2022-11-10T21:52:27.252Z,78.30
2022-11-10T21:56:11.417Z,78.39
2022-11-10T22:00:06.378Z,78.38
2022-11-10T22:03:49.683Z,78.17
2022-11-10T22:07:32.314Z,77.91
2022-11-10T22:11:33.697Z,78.28
2022-11-10T22:15:35.204Z,78.82
2022-11-10T22:19:18.314Z,80.31
2022-11-10T22:23:01.075Z,80.66
2022-11-10T22:26:43.715Z,80.26
2022-11-10T22:30:28.325Z,80.04
2022-11-10T22:34:11.897Z,80.36
2022-11-10T22:37:57.350Z,79.75
2022-11-10T22:42:02.954Z,80.00
2022-11-10T22:45:47.186Z,79.67
2022-11-10T22:49:29.829Z,80.38
2022-11-10T22:53:15.426Z,81.89
2022-11-10T22:56:58.097Z,81.14
2022-11-10T23:00:41.401Z,80.06
2022-11-10T23:04:25.408Z,80.28
2022-11-10T23:08:08.155Z,79.56
2022-11-10T23:11:50.790Z,80.44
2022-11-10T23:15:40.378Z,80.16
2022-11-10T23:19:22.999Z,80.35
2022-11-10T23:23:07.008Z,79.64
2022-11-10T23:26:49.721Z,79.99
2022-11-10T23:30:51.961Z,80.27
2022-11-10T23:34:34.633Z,79.81
2022-11-10T23:38:18.924Z,79.88
2022-11-10T23:42:01.599Z,80.31
2022-11-10T23:46:07.684Z,80.13
2022-11-10T23:49:50.568Z,80.09
2022-11-10T23:53:34.597Z,81.34
2022-11-10T23:57:17.211Z,81.78
